createdAt,value
2022-08-20T00:02:10.948Z,11.55
2022-08-20T00:04:39.611Z,11.85
2022-08-20T00:07:09.026Z,12.65
2022-08-20T00:09:37.098Z,13.40
2022-08-20T00:12:06.148Z,12.77
2022-08-20T00:14:34.834Z,11.73
2022-08-20T00:17:03.245Z,12.52
2022-08-20T00:19:31.637Z,12.70
2022-08-20T00:21:59.553Z,13.43
2022-08-20T00:24:28.832Z,13.55
2022-08-20T00:26:56.762Z,13.95
2022-08-20T00:29:24.792Z,13.80
2022-08-20T00:31:52.744Z,13.57
2022-08-20T00:34:20.902Z,12.52
2022-08-20T00:36:48.824Z,13.13
2022-08-20T00:39:16.807Z,12.30
2022-08-20T00:41:46.032Z,13.20
2022-08-20T00:44:18.534Z,12.93
2022-08-20T00:46:47.453Z,13.27
2022-08-20T00:49:18.454Z,13.05
2022-08-20T00:51:49.978Z,12.88
2022-08-20T00:54:24.906Z,13.10
2022-08-20T00:56:59.523Z,14.23
2022-08-20T00:59:30.674Z,14.38
2022-08-20T01:01:59.414Z,13.98
2022-08-20T01:04:29.860Z,14.20
2022-08-20T01:06:58.418Z,15.07
2022-08-20T01:09:49.735Z,14.35
2022-08-20T01:12:18.010Z,16.10
2022-08-20T01:14:47.479Z,14.73
2022-08-20T01:17:19.732Z,15.38
2022-08-20T01:19:53.439Z,16.60
2022-08-20T01:22:46.371Z,16.33
2022-08-20T01:25:20.777Z,15.77
2022-08-20T01:27:55.389Z,16.30
2022-08-20T01:30:28.417Z,16.83
2022-08-20T01:32:56.865Z,16.67
2022-08-20T01:35:26.716Z,16.52
2022-08-20T01:37:54.829Z,16.33
2022-08-20T01:40:35.635Z,16.52
2022-08-20T01:43:06.406Z,17.45
2022-08-20T01:45:36.402Z,17.80
2022-08-20T01:48:06.045Z,17.80
2022-08-20T01:50:36.254Z,18.52
2022-08-20T01:53:13.669Z,18.27
2022-08-20T01:55:42.111Z,17.25
2022-08-20T01:58:11.803Z,17.70
2022-08-20T02:00:39.966Z,20.38
2022-08-20T02:03:08.542Z,20.08
2022-08-20T02:05:36.769Z,20.02
2022-08-20T02:08:06.076Z,18.70
2022-08-20T02:10:34.209Z,19.40
2022-08-20T02:13:02.801Z,19.83
2022-08-20T02:15:37.082Z,19.40
2022-08-20T02:18:10.758Z,20.70
2022-08-20T02:20:40.030Z,21.00
2022-08-20T02:23:09.377Z,20.02
2022-08-20T02:25:40.315Z,21.10
2022-08-20T02:28:11.944Z,20.60
2022-08-20T02:30:46.353Z,21.17
2022-08-20T02:33:17.157Z,22.02
2022-08-20T02:35:47.949Z,21.20
2022-08-20T02:38:16.768Z,21.48
2022-08-20T02:40:46.068Z,21.75
2022-08-20T02:43:14.487Z,22.45
2022-08-20T02:45:44.655Z,22.35
2022-08-20T02:48:21.211Z,22.35
2022-08-20T02:50:51.708Z,23.17
2022-08-20T02:53:19.798Z,21.77
2022-08-20T02:55:48.069Z,23.02
2022-08-20T02:58:16.308Z,21.58
2022-08-20T03:00:45.875Z,21.95
2022-08-20T03:03:15.695Z,23.20
2022-08-20T03:05:45.462Z,21.20
2022-08-20T03:08:15.288Z,22.65
2022-08-20T03:10:45.129Z,21.90
2022-08-20T03:13:14.920Z,22.73
2022-08-20T03:15:46.699Z,22.63
2022-08-20T03:18:15.047Z,22.33
2022-08-20T03:20:43.489Z,22.60
2022-08-20T03:23:14.273Z,21.25
2022-08-20T03:25:42.464Z,22.10
2022-08-20T03:28:11.091Z,21.42
2022-08-20T03:30:39.707Z,22.90
2022-08-20T03:33:09.236Z,22.13
2022-08-20T03:35:38.517Z,22.30
2022-08-20T03:38:08.600Z,22.70
2022-08-20T03:40:37.326Z,22.23
2022-08-20T03:43:06.011Z,23.45
2022-08-20T03:45:34.126Z,22.17
2022-08-20T03:48:02.574Z,22.80
2022-08-20T03:50:33.062Z,23.30
2022-08-20T03:53:01.546Z,22.27
2022-08-20T03:55:31.396Z,24.58
2022-08-20T03:58:02.969Z,23.63
2022-08-20T04:00:35.141Z,24.15
2022-08-20T04:03:03.402Z,24.02
2022-08-20T04:05:34.315Z,24.15
2022-08-20T04:08:03.720Z,23.92
2022-08-20T04:10:31.967Z,23.08
2022-08-20T04:12:59.907Z,22.42
2022-08-20T04:15:29.732Z,22.70
2022-08-20T04:17:59.761Z,21.92
2022-08-20T04:20:28.214Z,21.75
2022-08-20T04:22:59.421Z,23.55
2022-08-20T04:25:28.487Z,22.80
2022-08-20T04:27:58.528Z,22.02
2022-08-20T04:30:27.223Z,23.30
2022-08-20T04:32:56.079Z,22.88
2022-08-20T04:35:25.358Z,21.92
2022-08-20T04:38:02.285Z,21.25
2022-08-20T04:40:48.121Z,23.77
2022-08-20T04:43:16.606Z,22.23
2022-08-20T04:45:45.265Z,22.23
2022-08-20T04:48:15.320Z,22.70
2022-08-20T04:50:46.902Z,21.52
2022-08-20T04:53:22.736Z,22.55
2022-08-20T04:55:55.053Z,21.48
2022-08-20T04:58:27.376Z,20.98
2022-08-20T05:00:56.910Z,22.00
2022-08-20T05:03:30.024Z,20.65
2022-08-20T05:05:58.576Z,22.00
2022-08-20T05:08:28.056Z,21.10
2022-08-20T05:11:06.724Z,21.58
2022-08-20T05:13:45.733Z,21.42
2022-08-20T05:16:14.198Z,21.73
2022-08-20T05:18:44.731Z,21.55
2022-08-20T05:21:20.653Z,21.63
2022-08-20T05:23:50.137Z,21.58
2022-08-20T05:26:20.155Z,20.85
2022-08-20T05:28:57.561Z,21.08
2022-08-20T05:31:31.863Z,20.77
2022-08-20T05:34:01.667Z,19.55
2022-08-20T05:36:29.887Z,20.20
2022-08-20T05:38:59.220Z,19.35
2022-08-20T05:41:30.169Z,19.80
2022-08-20T05:44:01.133Z,20.73
2022-08-20T05:46:29.505Z,20.17
2022-08-20T05:48:59.443Z,20.58
2022-08-20T05:51:27.697Z,20.48
2022-08-20T05:53:57.395Z,19.45
2022-08-20T05:56:30.248Z,19.08
2022-08-20T05:58:59.397Z,19.85
2022-08-20T06:01:27.395Z,19.40
2022-08-20T06:04:12.961Z,19.13
2022-08-20T06:06:46.029Z,18.83
2022-08-20T06:09:16.115Z,18.45
2022-08-20T06:11:45.309Z,18.30
2022-08-20T06:14:13.289Z,19.30
2022-08-20T06:16:57.098Z,18.25
2022-08-20T06:19:26.362Z,18.65
2022-08-20T06:21:54.666Z,17.67
2022-08-20T06:24:22.688Z,16.60
2022-08-20T06:26:57.885Z,16.95
2022-08-20T06:29:26.062Z,16.45
2022-08-20T06:31:54.168Z,15.20
2022-08-20T06:34:22.072Z,16.70
2022-08-20T06:36:49.981Z,16.17
2022-08-20T06:39:17.945Z,16.85
2022-08-20T06:41:45.877Z,16.95
2022-08-20T06:44:15.288Z,17.25
2022-08-20T06:46:43.337Z,16.02
2022-08-20T06:49:11.400Z,15.93
2022-08-20T06:51:40.089Z,15.95
2022-08-20T06:54:09.647Z,15.45
2022-08-20T06:56:37.682Z,16.27
2022-08-20T06:59:05.567Z,15.40
2022-08-20T07:01:35.765Z,15.40
2022-08-20T07:04:07.560Z,15.38
2022-08-20T07:06:35.693Z,16.27
2022-08-20T07:09:03.710Z,15.40
2022-08-20T07:11:31.631Z,16.10
2022-08-20T07:13:59.602Z,15.20
2022-08-20T07:16:27.984Z,15.02
2022-08-20T07:18:58.250Z,14.40
2022-08-20T07:21:26.599Z,14.15
2022-08-20T07:23:54.529Z,14.77
2022-08-20T07:26:22.936Z,13.93
2022-08-20T07:28:50.964Z,15.23
2022-08-20T07:31:36.583Z,14.85
2022-08-20T07:34:06.231Z,15.18
2022-08-20T07:36:34.902Z,14.02
2022-08-20T07:39:05.896Z,13.50
2022-08-20T07:41:34.848Z,13.70
2022-08-20T07:44:03.384Z,13.80
2022-08-20T07:46:32.282Z,13.75
2022-08-20T07:49:00.363Z,13.80
2022-08-20T07:51:29.894Z,14.13
2022-08-20T07:54:00.109Z,13.10
2022-08-20T07:56:28.247Z,12.80
2022-08-20T07:58:59.191Z,13.00
2022-08-20T08:01:29.673Z,13.52
2022-08-20T08:03:57.937Z,13.95
2022-08-20T08:06:29.067Z,13.75
2022-08-20T08:09:02.478Z,13.73
2022-08-20T08:11:30.957Z,14.20
2022-08-20T08:14:00.752Z,13.02
2022-08-20T08:16:32.532Z,14.10
2022-08-20T08:19:01.828Z,12.82
2022-08-20T08:21:31.090Z,13.50
2022-08-20T08:24:00.663Z,12.90
2022-08-20T08:26:29.290Z,12.80
2022-08-20T08:28:58.002Z,12.90
2022-08-20T08:31:26.613Z,12.63
2022-08-20T08:33:55.177Z,12.90
2022-08-20T08:36:23.237Z,12.68
2022-08-20T08:38:51.201Z,12.73
2022-08-20T08:41:26.060Z,12.32
2022-08-20T08:43:55.619Z,12.65
2022-08-20T08:46:27.450Z,12.85
2022-08-20T08:49:01.560Z,12.55
2022-08-20T08:51:34.878Z,12.82
2022-08-20T08:54:06.938Z,13.00
2022-08-20T08:56:37.100Z,14.07
2022-08-20T08:59:08.687Z,13.82
2022-08-20T09:01:55.198Z,13.95
2022-08-20T09:04:31.577Z,14.52
2022-08-20T09:07:00.582Z,13.60
2022-08-20T09:09:32.527Z,13.63
2022-08-20T09:12:07.828Z,14.88
2022-08-20T09:14:36.644Z,13.73
2022-08-20T09:17:05.054Z,14.40
2022-08-20T09:19:32.951Z,14.70
2022-08-20T09:22:07.378Z,14.57
2022-08-20T09:24:35.600Z,14.48
2022-08-20T09:27:05.229Z,14.50
2022-08-20T09:29:33.778Z,14.15
2022-08-20T09:32:09.185Z,14.90
2022-08-20T09:34:38.648Z,14.95
2022-08-20T09:37:06.668Z,16.38
2022-08-20T09:39:35.215Z,15.05
2022-08-20T09:42:13.564Z,14.82
2022-08-20T09:44:42.062Z,14.43
2022-08-20T09:47:11.122Z,14.43
2022-08-20T09:49:40.471Z,15.50
2022-08-20T09:52:09.906Z,14.95
2022-08-20T09:54:46.310Z,14.98
2022-08-20T09:57:17.129Z,14.13
2022-08-20T09:59:48.056Z,14.77
2022-08-20T10:02:15.977Z,14.80
2022-08-20T10:04:43.875Z,14.25
2022-08-20T10:07:12.197Z,13.65
2022-08-20T10:09:44.933Z,14.57
2022-08-20T10:12:13.302Z,14.70
2022-08-20T10:14:42.530Z,14.13
2022-08-20T10:17:10.628Z,14.48
2022-08-20T10:19:38.541Z,13.50
2022-08-20T10:22:06.727Z,14.75
2022-08-20T10:24:35.643Z,15.20
2022-08-20T10:27:03.671Z,14.50
2022-08-20T10:29:32.342Z,15.23
2022-08-20T10:32:09.864Z,14.00
2022-08-20T10:34:37.808Z,13.95
2022-08-20T10:37:05.729Z,14.07
2022-08-20T10:39:33.683Z,13.70
2022-08-20T10:42:01.584Z,13.93
2022-08-20T10:44:29.920Z,14.73
2022-08-20T10:46:57.976Z,13.90
2022-08-20T10:49:27.977Z,14.20
2022-08-20T10:51:56.472Z,13.52
2022-08-20T10:54:25.264Z,13.60
2022-08-20T10:56:53.124Z,14.23
2022-08-20T10:59:20.998Z,14.55
2022-08-20T11:01:49.016Z,13.13
2022-08-20T11:04:16.912Z,14.25
2022-08-20T11:06:46.143Z,14.35
2022-08-20T11:09:14.213Z,14.43
2022-08-20T11:11:42.182Z,14.68
2022-08-20T11:14:10.189Z,14.73
2022-08-20T11:16:38.087Z,14.88
2022-08-20T11:19:06.599Z,14.48
2022-08-20T11:21:34.584Z,13.57
2022-08-20T11:24:04.637Z,14.65
2022-08-20T11:26:32.562Z,14.43
2022-08-20T11:29:00.467Z,14.32
2022-08-20T11:31:28.354Z,14.57
2022-08-20T11:33:56.793Z,15.32
2022-08-20T11:36:26.318Z,13.90
2022-08-20T11:38:54.384Z,14.90
2022-08-20T11:41:23.640Z,14.93
2022-08-20T11:44:17.409Z,14.70
2022-08-20T11:46:39.497Z,14.75
2022-08-20T11:49:07.666Z,16.48
2022-08-20T11:51:49.005Z,14.65
2022-08-20T11:54:18.188Z,15.30
2022-08-20T11:56:47.429Z,16.10
2022-08-20T11:59:15.382Z,15.85
2022-08-20T12:02:01.955Z,14.73
2022-08-20T12:04:33.367Z,15.80
2022-08-20T12:07:09.644Z,15.07
2022-08-20T12:09:37.642Z,14.95
2022-08-20T12:14:41.970Z,9.38
2022-08-20T12:17:10.583Z,10.65
2022-08-20T12:19:39.314Z,10.90
2022-08-20T12:22:24.378Z,11.30
2022-08-20T12:24:53.891Z,9.73
2022-08-20T12:27:24.493Z,10.13
2022-08-20T12:29:54.715Z,8.95
2022-08-20T12:32:24.683Z,9.05
2022-08-20T12:34:53.007Z,9.02
2022-08-20T12:37:23.536Z,9.15
2022-08-20T12:39:53.025Z,8.60
2022-08-20T12:42:23.575Z,8.80
2022-08-20T12:44:51.425Z,8.43
2022-08-20T12:47:21.532Z,9.00
2022-08-20T12:49:51.617Z,8.35
2022-08-20T12:52:21.635Z,8.13
2022-08-20T12:54:49.705Z,7.80
2022-08-20T12:57:26.188Z,8.38
2022-08-20T12:59:54.064Z,7.75
2022-08-20T13:02:21.967Z,7.65
2022-08-20T13:04:49.855Z,7.80
2022-08-20T13:07:17.920Z,8.52
2022-08-20T13:09:46.252Z,9.02
2022-08-20T13:12:15.195Z,8.20
2022-08-20T13:14:44.933Z,8.45
2022-08-20T13:17:13.095Z,8.93
2022-08-20T13:19:41.005Z,8.07
2022-08-20T13:22:08.979Z,8.15
2022-08-20T13:24:37.502Z,7.38
2022-08-20T13:27:07.449Z,7.70
2022-08-20T13:29:35.849Z,6.95
2022-08-20T13:32:06.170Z,7.40
2022-08-20T13:34:34.092Z,7.07
2022-08-20T13:37:01.961Z,7.22
2022-08-20T13:39:29.868Z,8.23
2022-08-20T13:41:57.760Z,8.00
2022-08-20T13:44:32.794Z,7.70
2022-08-20T13:47:01.838Z,7.85
2022-08-20T13:49:34.061Z,7.20
2022-08-20T13:52:02.114Z,6.93
2022-08-20T13:54:31.187Z,6.57
2022-08-20T13:57:05.922Z,6.68
2022-08-20T13:59:37.360Z,6.72
2022-08-20T14:02:07.400Z,6.35
2022-08-20T14:04:37.406Z,6.93
2022-08-20T14:07:14.934Z,6.35
2022-08-20T14:09:44.910Z,6.00
2022-08-20T14:12:14.044Z,5.95
2022-08-20T14:14:43.288Z,5.75
2022-08-20T14:17:16.398Z,5.57
2022-08-20T14:19:45.835Z,6.35
2022-08-20T14:22:13.847Z,4.38
2022-08-20T14:24:41.747Z,1.95
2022-08-20T14:27:09.861Z,1.40
2022-08-20T14:29:40.119Z,1.73
2022-08-20T14:32:08.664Z,2.00
2022-08-20T14:34:37.377Z,2.22
2022-08-20T14:37:15.429Z,2.25
2022-08-20T14:39:44.696Z,2.08
2022-08-20T14:42:13.318Z,2.38
2022-08-20T14:44:41.940Z,2.35
2022-08-20T14:47:19.113Z,2.10
2022-08-20T14:49:48.308Z,2.38
2022-08-20T14:52:20.039Z,2.67
2022-08-20T14:54:48.965Z,2.42
2022-08-20T14:57:19.459Z,2.50
2022-08-20T14:59:47.697Z,3.03
2022-08-20T15:02:17.440Z,2.58
2022-08-20T15:04:48.795Z,2.60
2022-08-20T15:07:27.325Z,2.30
2022-08-20T15:09:57.139Z,2.38
2022-08-20T15:12:25.640Z,2.40
2022-08-20T15:14:53.542Z,2.75
2022-08-20T15:17:24.399Z,3.42
2022-08-20T15:19:52.926Z,3.08
2022-08-20T15:22:21.508Z,3.70
2022-08-20T15:24:52.719Z,4.13
2022-08-20T15:27:26.434Z,4.18
2022-08-20T15:29:54.962Z,2.50
2022-08-20T15:32:23.005Z,1.67
2022-08-20T15:34:51.334Z,1.60
2022-08-20T15:37:21.795Z,2.10
2022-08-20T15:39:52.031Z,2.30
2022-08-20T15:42:21.454Z,2.30
2022-08-20T15:44:49.409Z,1.98
2022-08-20T15:47:24.378Z,1.50
2022-08-20T15:49:56.867Z,1.50
2022-08-20T15:52:27.649Z,1.80
2022-08-20T15:54:56.950Z,1.20
2022-08-20T15:57:45.120Z,1.23
2022-08-20T16:00:16.382Z,1.30
2022-08-20T16:03:01.116Z,1.10
2022-08-20T16:05:39.943Z,1.25
2022-08-20T16:08:20.731Z,1.10
2022-08-20T16:10:58.950Z,1.45
2022-08-20T16:13:35.615Z,1.25
2022-08-20T16:16:05.410Z,1.38
2022-08-20T16:18:36.780Z,1.77
2022-08-20T16:21:11.305Z,1.55
2022-08-20T16:23:41.892Z,1.63
2022-08-20T16:26:24.484Z,1.77
2022-08-20T16:29:03.666Z,1.75
2022-08-20T16:31:42.889Z,1.70
2022-08-20T16:34:34.011Z,2.00
2022-08-20T16:37:12.516Z,1.70
2022-08-20T16:39:53.067Z,1.73
2022-08-20T16:42:25.637Z,1.80
2022-08-20T16:44:57.354Z,2.00
2022-08-20T16:47:29.570Z,2.05
2022-08-20T16:50:01.603Z,2.08
2022-08-20T16:52:29.957Z,2.10
2022-08-20T16:54:58.202Z,2.00
2022-08-20T16:57:29.100Z,2.13
2022-08-20T16:59:59.675Z,2.10
2022-08-20T17:02:27.717Z,2.28
2022-08-20T17:04:59.326Z,2.42
2022-08-20T17:07:33.498Z,2.65
2022-08-20T17:12:42.993Z,2.58
2022-08-20T17:15:20.779Z,2.70
2022-08-20T17:17:48.860Z,2.65
2022-08-20T17:20:20.378Z,3.30
2022-08-20T17:22:51.661Z,2.90
2022-08-20T17:25:23.249Z,2.70
2022-08-20T17:27:52.549Z,3.03
2022-08-20T17:30:24.800Z,3.20
2022-08-20T17:32:59.516Z,2.47
2022-08-20T17:35:31.638Z,3.03
2022-08-20T17:38:01.028Z,2.83
2022-08-20T17:40:33.364Z,2.88
2022-08-20T17:43:04.986Z,3.38
2022-08-20T17:45:38.426Z,2.75
2022-08-20T17:50:39.435Z,3.50
2022-08-20T17:53:18.761Z,2.90
2022-08-20T17:55:53.144Z,3.10
2022-08-20T17:58:32.394Z,2.92
2022-08-20T18:01:00.865Z,3.13
2022-08-20T18:03:29.283Z,3.05
2022-08-20T18:06:02.655Z,2.85
2022-08-20T18:08:39.912Z,2.65
2022-08-20T18:11:18.151Z,2.80
2022-08-20T18:14:06.120Z,2.85
2022-08-20T18:16:44.891Z,2.70
2022-08-20T18:19:19.819Z,3.17
2022-08-20T18:22:07.925Z,2.92
2022-08-20T18:24:44.580Z,3.22
2022-08-20T18:27:15.726Z,2.92
2022-08-20T18:29:49.565Z,2.88
2022-08-20T18:32:31.576Z,3.22
2022-08-20T18:35:18.655Z,3.17
2022-08-20T18:37:46.641Z,3.58
2022-08-20T18:40:24.030Z,3.70
2022-08-20T18:42:52.042Z,3.78
2022-08-20T18:45:31.322Z,3.70
2022-08-20T18:47:59.968Z,4.07
2022-08-20T18:50:32.566Z,4.30
2022-08-20T18:53:11.720Z,5.25
2022-08-20T18:55:43.284Z,4.93
2022-08-20T18:58:13.855Z,3.42
2022-08-20T19:00:46.035Z,3.55
2022-08-20T19:03:19.376Z,4.13
2022-08-20T19:08:45.719Z,3.28
2022-08-20T19:11:34.915Z,4.60
2022-08-20T19:14:21.797Z,4.43
2022-08-20T19:16:56.873Z,4.25
2022-08-20T19:19:28.546Z,4.50
2022-08-20T19:22:02.554Z,4.05
2022-08-20T19:24:34.698Z,4.32
2022-08-20T19:27:06.206Z,4.13
2022-08-20T19:29:38.155Z,4.25
2022-08-20T19:32:10.462Z,3.85
2022-08-20T19:34:42.036Z,4.10
2022-08-20T19:37:31.592Z,3.83
2022-08-20T19:40:05.985Z,3.92
2022-08-20T19:42:43.154Z,3.85
2022-08-20T19:45:18.186Z,4.18
2022-08-20T19:47:56.668Z,3.72
2022-08-20T19:50:36.648Z,3.70
2022-08-20T19:53:15.028Z,3.65
2022-08-20T19:55:43.818Z,3.50
2022-08-20T19:58:16.869Z,3.58
2022-08-20T20:00:55.382Z,4.03
2022-08-20T20:03:27.510Z,4.10
2022-08-20T20:05:57.646Z,3.70
2022-08-20T20:08:30.314Z,3.92
2022-08-20T20:11:00.547Z,3.38
2022-08-20T20:13:35.985Z,3.53
2022-08-20T20:16:08.333Z,4.07
2022-08-20T20:18:41.217Z,3.83
2022-08-20T20:21:13.411Z,3.80
2022-08-20T20:23:46.735Z,3.88
2022-08-20T20:26:18.251Z,3.88
2022-08-20T20:28:49.001Z,3.85
2022-08-20T20:31:23.301Z,3.83
2022-08-20T20:33:55.893Z,3.50
2022-08-20T20:36:36.086Z,3.70
2022-08-20T20:39:12.457Z,4.10
2022-08-20T20:41:52.259Z,3.80
2022-08-20T20:44:22.473Z,3.70
2022-08-20T20:46:55.814Z,3.65
2022-08-20T20:49:27.780Z,3.53
2022-08-20T20:52:00.640Z,3.50
2022-08-20T20:54:40.503Z,3.35
2022-08-20T20:57:10.176Z,2.97
2022-08-20T20:59:38.292Z,3.25
2022-08-20T21:02:06.391Z,3.10
2022-08-20T21:04:38.499Z,3.47
2022-08-20T21:07:11.153Z,3.10
2022-08-20T21:09:41.538Z,3.63
2022-08-20T21:12:10.449Z,3.45
2022-08-20T21:14:38.551Z,3.65
2022-08-20T21:17:10.065Z,3.45
2022-08-20T21:19:41.112Z,3.40
2022-08-20T21:22:13.152Z,2.90
2022-08-20T21:24:41.106Z,2.95
2022-08-20T21:27:09.806Z,2.97
2022-08-20T21:29:40.447Z,3.08
2022-08-20T21:32:09.066Z,2.95
2022-08-20T21:34:41.797Z,3.08
2022-08-20T21:37:09.660Z,3.15
2022-08-20T21:39:37.846Z,2.78
2022-08-20T21:42:28.260Z,3.00
2022-08-20T21:44:56.849Z,2.97
2022-08-20T21:47:24.922Z,3.17
2022-08-20T21:49:54.477Z,2.63
2022-08-20T21:52:22.539Z,3.20
2022-08-20T21:54:50.425Z,3.17
2022-08-20T21:57:21.463Z,2.83
2022-08-20T21:59:50.198Z,2.97
2022-08-20T22:02:19.343Z,2.92
2022-08-20T22:04:47.209Z,3.00
2022-08-20T22:07:17.153Z,2.83
2022-08-20T22:09:45.125Z,2.60
2022-08-20T22:12:19.218Z,2.65
2022-08-20T22:14:47.494Z,3.28
2022-08-20T22:17:15.767Z,2.92
2022-08-20T22:19:43.804Z,3.08
2022-08-20T22:22:13.164Z,2.90
2022-08-20T22:24:42.877Z,2.75
2022-08-20T22:27:10.915Z,2.53
2022-08-20T22:29:39.202Z,2.55
2022-08-20T22:32:07.414Z,2.88
2022-08-20T22:34:37.939Z,2.97
2022-08-20T22:37:06.208Z,2.58
2022-08-20T22:39:34.298Z,2.97
2022-08-20T22:42:03.631Z,2.72
2022-08-20T22:44:31.530Z,2.78
2022-08-20T22:47:02.764Z,2.40
2022-08-20T22:49:34.329Z,2.20
2022-08-20T22:52:02.596Z,2.58
2022-08-20T22:54:30.894Z,2.47
2022-08-20T22:56:58.811Z,2.83
2022-08-20T22:59:28.941Z,2.20
2022-08-20T23:01:59.182Z,2.50
2022-08-20T23:04:29.452Z,2.67
2022-08-20T23:06:58.382Z,2.63
2022-08-20T23:09:27.326Z,2.42
2022-08-20T23:11:55.248Z,2.30
2022-08-20T23:14:23.398Z,2.58
2022-08-20T23:17:01.889Z,2.63
2022-08-20T23:19:29.896Z,2.67
2022-08-20T23:21:57.819Z,2.85
2022-08-20T23:24:25.988Z,2.50
2022-08-20T23:26:54.321Z,2.65
2022-08-20T23:29:25.427Z,2.50
2022-08-20T23:31:56.573Z,2.35
2022-08-20T23:34:24.944Z,2.80
2022-08-20T23:36:53.321Z,2.65
2022-08-20T23:39:21.665Z,2.70
2022-08-20T23:41:49.575Z,2.60
2022-08-20T23:44:26.372Z,2.85
2022-08-20T23:46:57.666Z,2.83
2022-08-20T23:49:26.082Z,2.95
2022-08-20T23:51:54.022Z,2.88
2022-08-20T23:54:22.135Z,2.70
2022-08-20T23:56:50.033Z,2.30
2022-08-20T23:59:18.304Z,2.72
